Time;durP1;ratioP1;P1;durP2;ratioP2;P2;SDS_P1;SDS_P2;PMS_P1;PMS_P2;Temp;Humidity;BMP_temperature;BMP_pressure;BME280_temperature;BME280_humidity;BME280_pressure;Samples;Min_cycle;Max_cycle;Signal;HPM_P1;HPM_P2
2021/01/06 00:00:37;;;;;;;54.93;29.87;;;1.70;99.90;;;2.65;95.42;97315.22;5209092;28;20197;-78
2021/01/06 00:03:11;;;;;;;62.37;31.67;;;1.80;99.90;;;2.66;94.90;97317.00;5194235;28;20233;-76
2021/01/06 00:05:45;;;;;;;59.20;30.20;;;1.80;99.90;;;2.70;94.64;97313.06;5184602;28;20194;-76
2021/01/06 00:08:17;;;;;;;64.13;29.93;;;1.80;99.90;;;2.70;94.97;97311.44;5205276;28;20201;-76
2021/01/06 00:10:52;;;;;;;63.60;30.10;;;1.70;99.90;;;2.68;94.19;97310.41;5201938;28;20219;-77
2021/01/06 00:13:25;;;;;;;67.00;30.57;;;1.70;99.90;;;2.67;94.61;97311.19;5185680;28;20214;-75
2021/01/06 00:15:58;;;;;;;69.63;31.73;;;1.80;99.90;;;2.64;94.83;97313.47;5185186;28;20198;-76
2021/01/06 00:18:30;;;;;;;62.60;30.10;;;1.80;99.90;;;2.65;95.76;97310.19;5186693;28;20204;-77
2021/01/06 00:21:04;;;;;;;57.63;30.43;;;1.70;99.90;;;2.64;94.89;97308.44;5189850;28;20296;-77
2021/01/06 00:23:37;;;;;;;64.00;30.27;;;1.80;99.90;;;2.63;95.21;97314.25;5207595;28;20288;-76
2021/01/06 00:26:09;;;;;;;68.37;32.27;;;1.80;99.90;;;2.61;95.15;97309.84;5208784;28;20205;-77
2021/01/06 00:28:41;;;;;;;64.97;31.90;;;1.70;99.90;;;2.65;95.30;97306.78;5205947;28;20709;-76
2021/01/06 00:31:13;;;;;;;63.43;30.53;;;1.80;99.90;;;2.63;95.11;97309.22;5204341;28;20225;-77
2021/01/06 00:33:45;;;;;;;55.80;29.93;;;1.70;99.90;;;2.61;94.98;97310.72;5187013;28;20206;-78
2021/01/06 00:36:21;;;;;;;54.97;29.10;;;1.70;99.90;;;2.66;95.02;97309.44;5184806;28;20572;-75
2021/01/06 00:38:53;;;;;;;54.77;29.07;;;1.80;99.90;;;2.68;95.61;97310.41;5184122;28;20215;-77
2021/01/06 00:41:27;;;;;;;56.57;29.53;;;1.80;99.90;;;2.76;95.26;97312.69;5185283;28;20237;-77
2021/01/06 00:44:00;;;;;;;61.47;29.53;;;1.80;99.90;;;2.71;95.00;97308.13;5186234;28;20235;-76
2021/01/06 00:46:37;;;;;;;57.43;29.50;;;1.80;99.90;;;2.78;94.88;97306.13;5193454;28;20216;-76
2021/01/06 00:49:09;;;;;;;59.53;30.80;;;1.80;99.90;;;2.77;95.16;97310.25;5205923;28;20205;-77
2021/01/06 00:51:41;;;;;;;63.00;30.50;;;1.80;99.90;;;2.73;94.57;97302.34;5193988;28;20315;-75
2021/01/06 00:54:14;;;;;;;55.77;28.17;;;1.80;99.90;;;2.70;94.52;97303.88;5189389;28;20225;-78
2021/01/06 00:56:46;;;;;;;56.73;29.30;;;1.80;99.90;;;2.74;94.97;97309.16;5205071;28;20583;-77
2021/01/06 00:59:18;;;;;;;52.33;26.53;;;1.80;99.90;;;2.69;95.30;97307.16;5205151;28;20201;-77
2021/01/06 01:01:50;;;;;;;52.57;26.37;;;1.80;99.90;;;2.64;95.56;97297.47;5205273;28;20694;-76
2021/01/06 01:04:22;;;;;;;49.93;27.13;;;1.80;99.90;;;2.65;94.98;97307.66;5193449;28;20241;-76
2021/01/06 01:06:55;;;;;;;48.37;25.57;;;1.80;99.90;;;2.68;95.24;97305.38;5187275;28;20201;-77
2021/01/06 01:09:28;;;;;;;48.07;24.67;;;1.80;99.90;;;2.66;95.78;97304.41;5184288;28;20195;-76
2021/01/06 01:12:00;;;;;;;42.60;24.47;;;1.80;99.90;;;2.68;95.90;97312.94;5184984;28;20640;-77
2021/01/06 01:14:32;;;;;;;44.57;26.10;;;1.80;99.90;;;2.68;95.87;97310.41;5187398;28;20217;-77
2021/01/06 01:17:04;;;;;;;46.00;28.60;;;1.90;99.90;;;2.68;95.94;97315.47;5187772;28;20209;-76
2021/01/06 01:19:36;;;;;;;46.90;26.13;;;1.80;99.90;;;2.67;96.11;97308.66;5197718;28;20288;-77
2021/01/06 01:22:09;;;;;;;36.30;23.23;;;1.90;99.90;;;2.69;96.20;97317.25;5190264;28;20229;-77
2021/01/06 01:24:41;;;;;;;35.53;23.17;;;1.90;99.90;;;2.73;95.67;97317.47;5186825;28;20209;-77
2021/01/06 01:27:13;;;;;;;29.83;22.13;;;1.90;99.90;;;2.74;95.74;97316.72;5186610;28;20199;-78
2021/01/06 01:29:46;;;;;;;32.30;24.23;;;1.90;99.90;;;2.73;96.25;97314.97;5184861;28;20412;-76
2021/01/06 01:32:18;;;;;;;35.60;24.43;;;1.90;99.90;;;2.71;96.04;97317.34;5197126;28;20228;-77
2021/01/06 01:34:50;;;;;;;49.17;36.03;;;1.90;99.90;;;2.73;95.64;97317.47;5205242;28;20202;-77
2021/01/06 01:37:23;;;;;;;49.20;36.57;;;1.90;99.90;;;2.73;95.04;97310.78;5190420;28;20272;-76
2021/01/06 01:39:55;;;;;;;38.83;27.77;;;1.90;99.90;;;2.71;96.08;97315.69;5207615;28;20229;-77
2021/01/06 01:42:27;;;;;;;34.03;23.97;;;1.90;99.90;;;2.71;95.19;97317.34;5191804;28;20221;-77
2021/01/06 01:45:01;;;;;;;29.37;23.37;;;1.90;99.90;;;2.71;95.76;97310.66;5186310;28;20206;-78
2021/01/06 01:47:51;;;;;;;33.07;24.00;;;1.90;99.90;;;2.70;95.65;97305.50;5202160;28;20185;-76
2021/01/06 01:50:25;;;;;;;32.00;23.03;;;1.90;99.90;;;2.66;95.16;97309.44;5188898;28;20236;-76
2021/01/06 01:53:05;;;;;;;29.97;23.67;;;1.90;99.90;;;2.69;95.03;97313.84;5183750;28;20229;-78
2021/01/06 01:55:38;;;;;;;32.73;23.37;;;1.80;99.90;;;2.67;94.88;97311.19;5184531;28;20202;-78
2021/01/06 01:58:25;;;;;;;31.63;22.63;;;1.80;99.90;;;2.63;94.97;97310.81;5193991;28;20202;-78
2021/01/06 02:00:57;;;;;;;34.17;22.10;;;1.80;99.90;;;2.62;95.42;97309.06;5186912;28;20289;-76
2021/01/06 02:03:35;;;;;;;34.27;22.13;;;1.70;99.90;;;2.63;94.96;97316.78;5184696;28;20229;-76
2021/01/06 02:06:11;;;;;;;31.43;20.73;;;1.80;99.90;;;2.61;95.72;97303.16;5184706;28;20672;-77
2021/01/06 02:08:51;;;;;;;30.73;21.13;;;1.80;99.90;;;2.62;94.56;97312.47;5188714;28;20208;-77
2021/01/06 02:11:29;;;;;;;32.20;20.53;;;1.70;99.90;;;2.70;94.54;97305.50;5205569;28;20236;-77
2021/01/06 02:14:07;;;;;;;27.00;19.97;;;1.80;99.90;;;2.74;94.36;97304.09;5205151;28;20562;-77
2021/01/06 02:16:49;;;;;;;28.77;19.63;;;1.70;99.90;;;2.73;94.43;97305.75;5205008;28;20223;-77
2021/01/06 02:19:28;;;;;;;29.17;19.23;;;1.70;99.90;;;2.68;93.58;97307.91;5202208;28;20190;-77
2021/01/06 02:22:01;;;;;;;26.90;19.43;;;1.70;99.90;;;2.65;94.57;97305.13;5203955;28;20214;-77
2021/01/06 02:24:34;;;;;;;32.47;21.47;;;1.70;99.90;;;2.61;94.64;97310.72;5204914;28;20217;-76
2021/01/06 02:27:07;;;;;;;29.57;20.00;;;1.70;99.90;;;2.60;94.17;97311.47;5204045;28;20206;-77
2021/01/06 02:29:40;;;;;;;32.63;21.83;;;1.70;99.90;;;2.62;94.67;97304.03;5204448;28;20196;-77
2021/01/06 02:32:12;;;;;;;36.63;22.77;;;1.70;99.90;;;2.60;94.42;97306.41;5200289;28;20223;-77
2021/01/06 02:34:45;;;;;;;42.20;24.43;;;1.70;99.90;;;2.57;94.58;97301.13;5185245;28;20202;-76
2021/01/06 02:37:18;;;;;;;40.87;23.90;;;1.70;99.90;;;2.55;94.60;97307.72;5189912;28;20208;-77
2021/01/06 02:39:51;;;;;;;39.93;24.17;;;1.70;99.90;;;2.59;94.69;97302.13;5187600;28;20215;-77
2021/01/06 02:42:23;;;;;;;42.87;25.50;;;1.70;99.90;;;2.63;94.86;97304.16;5187927;28;20215;-76
2021/01/06 02:44:55;;;;;;;41.30;24.23;;;1.60;99.90;;;2.61;94.40;97302.28;5186935;28;20584;-76
2021/01/06 02:47:27;;;;;;;37.80;23.53;;;1.70;99.90;;;2.54;94.87;97295.84;5186197;28;20584;-76
2021/01/06 02:50:00;;;;;;;40.00;24.47;;;1.70;99.90;;;2.56;94.85;97303.56;5199838;28;20194;-76
2021/01/06 02:52:38;;;;;;;38.27;24.00;;;1.70;99.90;;;2.58;95.49;97295.34;5206965;28;20719;-76
2021/01/06 02:55:13;;;;;;;34.73;22.50;;;1.70;99.90;;;2.60;95.06;97296.31;5206429;28;20239;-77
2021/01/06 02:57:47;;;;;;;35.73;22.87;;;1.70;99.90;;;2.59;94.77;97296.22;5206820;28;20197;-76
2021/01/06 03:00:25;;;;;;;34.87;22.43;;;1.70;99.90;;;2.63;94.16;97290.63;5207605;28;20284;-76
2021/01/06 03:02:58;;;;;;;32.70;21.90;;;1.60;99.90;;;2.64;94.51;97288.25;5198478;28;20659;-77
2021/01/06 03:05:37;;;;;;;34.87;22.37;;;1.70;99.90;;;2.59;94.60;97288.66;5187473;28;20203;-77
2021/01/06 03:08:16;;;;;;;32.63;21.47;;;1.60;99.90;;;2.52;95.16;97282.25;5186732;28;20199;-77
2021/01/06 03:10:48;;;;;;;34.40;22.93;;;1.70;99.90;;;2.54;94.89;97284.88;5187362;28;20720;-77
2021/01/06 03:13:20;;;;;;;33.90;22.37;;;1.60;99.90;;;2.49;94.84;97282.03;5187900;28;20226;-77
2021/01/06 03:15:52;;;;;;;33.17;22.27;;;1.60;99.90;;;2.40;95.05;97278.75;5186690;28;20572;-76
2021/01/06 03:18:25;;;;;;;33.67;22.80;;;1.60;99.90;;;2.41;95.63;97288.97;5186583;28;20257;-77
2021/01/06 03:21:02;;;;;;;34.93;21.93;;;1.60;99.90;;;2.46;95.35;97280.13;5187788;28;20276;-77
2021/01/06 03:23:39;;;;;;;33.47;22.50;;;1.70;99.90;;;2.52;95.72;97281.34;5199693;28;20658;-76
2021/01/06 03:26:16;;;;;;;29.70;20.97;;;1.70;99.90;;;2.54;95.29;97272.28;5207741;28;20200;-77
2021/01/06 03:28:51;;;;;;;30.70;20.87;;;1.70;99.90;;;2.55;96.08;97282.50;5193589;28;20322;-77
2021/01/06 03:31:33;;;;;;;28.77;20.03;;;1.80;99.90;;;2.56;96.03;97279.19;5186711;28;20253;-76
2021/01/06 03:34:16;;;;;;;26.07;19.57;;;1.80;99.90;;;2.62;96.09;97288.88;5189392;28;20201;-77
2021/01/06 03:36:57;;;;;;;31.87;20.97;;;1.80;99.90;;;2.60;95.97;97281.19;5188142;28;20208;-77
2021/01/06 03:39:44;;;;;;;29.30;21.33;;;1.80;99.90;;;2.62;94.89;97284.72;5186169;28;20220;-77
2021/01/06 03:42:16;;;;;;;29.80;20.50;;;1.80;99.90;;;2.59;95.04;97279.44;5185807;28;20231;-77
2021/01/06 03:44:49;;;;;;;30.30;20.77;;;1.80;99.90;;;2.60;95.61;97280.31;5186583;28;20302;-77
2021/01/06 03:47:26;;;;;;;30.53;20.37;;;1.80;99.90;;;2.60;95.35;97276.16;5204924;28;20203;-77
2021/01/06 03:50:04;;;;;;;32.77;21.53;;;1.80;99.90;;;2.62;95.72;97278.81;5195278;28;20685;-76
2021/01/06 03:53:04;;;;;;;30.93;20.77;;;1.80;99.90;;;2.62;94.62;97284.72;5186195;28;20230;-77
2021/01/06 03:55:52;;;;;;;31.43;19.30;;;1.70;99.90;;;2.59;94.56;97279.44;5187289;28;20566;-75
2021/01/06 03:58:42;;;;;;;31.10;21.30;;;1.70;99.90;;;2.58;94.82;97274.28;5186199;28;20197;-76
2021/01/06 04:01:34;;;;;;;29.17;20.17;;;1.70;99.90;;;2.52;94.79;97271.25;5185687;28;20203;-77
2021/01/06 04:04:16;;;;;;;27.57;18.70;;;1.70;99.90;;;2.53;95.22;97278.09;5186634;28;20210;-77
2021/01/06 04:06:52;;;;;;;27.70;19.57;;;1.70;99.90;;;2.55;95.13;97276.53;5204259;28;20193;-75
2021/01/06 04:09:34;;;;;;;26.77;19.97;;;1.70;99.90;;;2.57;94.49;97275.91;5205993;28;20201;-75
2021/01/06 04:12:10;;;;;;;24.70;18.70;;;1.70;99.90;;;2.62;94.12;97274.63;5205441;28;20225;-77
2021/01/06 04:14:43;;;;;;;28.23;20.13;;;1.70;99.90;;;2.61;94.70;97272.00;5206435;28;20213;-77
2021/01/06 04:17:25;;;;;;;27.10;20.73;;;1.70;99.90;;;2.60;94.79;97277.78;5206563;28;20281;-77
2021/01/06 04:20:01;;;;;;;27.37;21.53;;;1.70;99.90;;;2.59;95.22;97269.34;5201869;28;20209;-77
2021/01/06 04:22:46;;;;;;;27.20;20.53;;;1.70;99.90;;;2.61;94.49;97280.44;5189341;28;20226;-77
2021/01/06 04:25:27;;;;;;;26.03;20.00;;;1.60;99.90;;;2.58;94.13;97272.66;5186180;28;20206;-77
2021/01/06 04:28:05;;;;;;;26.47;19.70;;;1.70;99.90;;;2.53;93.97;97268.88;5185692;28;20202;-76
2021/01/06 04:30:41;;;;;;;25.83;19.27;;;1.60;99.90;;;2.43;94.39;97272.34;5186243;28;20562;-77
2021/01/06 04:33:19;;;;;;;27.00;19.50;;;1.60;99.90;;;2.48;94.71;97275.19;5185984;28;20222;-76
2021/01/06 04:35:52;;;;;;;28.80;20.20;;;1.70;99.90;;;2.49;95.08;97271.94;5188772;28;20357;-78
2021/01/06 04:38:28;;;;;;;27.70;20.33;;;1.70;99.90;;;2.49;94.88;97271.94;5191443;28;20208;-77
2021/01/06 04:41:19;;;;;;;31.60;21.73;;;1.70;99.90;;;2.51;95.08;97270.38;5186447;28;20210;-77
2021/01/06 04:44:05;;;;;;;30.17;20.57;;;1.70;99.90;;;2.54;95.67;97260.53;5185515;28;20202;-75
2021/01/06 04:47:01;;;;;;;27.93;20.07;;;1.70;99.90;;;2.51;95.22;97264.47;5185466;28;20206;-77
2021/01/06 04:49:42;;;;;;;30.67;20.23;;;1.70;99.90;;;2.50;95.07;97263.59;5195882;28;20254;-77
2021/01/06 04:52:35;;;;;;;29.83;20.70;;;1.70;99.90;;;2.48;94.55;97258.41;5193010;28;20233;-76
2021/01/06 04:55:23;;;;;;;30.93;21.10;;;1.70;99.90;;;2.47;95.20;97264.22;5183651;28;20198;-76
2021/01/06 04:58:14;;;;;;;31.77;20.83;;;1.70;99.90;;;2.42;95.19;97270.56;5185105;28;20199;-77
2021/01/06 05:01:52;;;;;;;28.53;20.00;;;1.60;99.90;;;2.35;95.00;97272.50;5185023;28;20292;-75
2021/01/06 05:04:51;;;;;;;33.10;20.80;;;1.50;99.90;;;2.35;94.52;97263.28;5115174;29;20215;-75
2021/01/06 05:07:44;;;;;;;34.10;21.97;;;1.60;99.90;;;2.38;94.04;97265.16;5199915;28;20604;-78
2021/01/06 05:10:36;;;;;;;30.83;19.90;;;1.60;99.90;;;2.36;94.68;97264.16;5204609;28;20654;-76
2021/01/06 05:13:19;;;;;;;31.27;21.03;;;1.60;99.90;;;2.37;94.42;97269.31;5205438;28;20218;-77
2021/01/06 05:15:58;;;;;;;31.80;21.77;;;1.60;99.90;;;2.38;94.21;97257.59;5205550;28;20668;-75
2021/01/06 05:18:30;;;;;;;32.07;21.43;;;1.60;99.90;;;2.41;94.52;97257.84;5205163;28;20205;-75
2021/01/06 05:21:06;;;;;;;34.97;20.93;;;1.60;99.90;;;2.40;94.27;97266.16;5189266;28;20578;-77
2021/01/06 05:23:41;;;;;;;33.77;20.63;;;1.60;99.90;;;2.38;94.38;97267.69;5186102;28;20281;-75
2021/01/06 05:26:13;;;;;;;31.77;20.13;;;1.60;99.90;;;2.39;93.96;97264.41;5191277;28;20215;-76
2021/01/06 05:28:48;;;;;;;33.33;20.80;;;1.60;99.90;;;2.40;93.78;97266.16;5204890;28;20211;-77
2021/01/06 05:31:21;;;;;;;34.27;22.90;;;1.60;99.90;;;2.43;94.63;97266.38;5204740;28;20259;-75
2021/01/06 05:33:54;;;;;;;31.43;20.73;;;1.70;99.90;;;2.43;94.85;97271.44;5192309;28;20729;-77
2021/01/06 05:36:31;;;;;;;32.47;21.80;;;1.60;99.90;;;2.40;93.82;97276.22;5184912;28;20293;-76
2021/01/06 05:39:20;;;;;;;31.93;22.10;;;1.60;99.90;;;2.37;93.80;97276.00;5184037;28;20202;-77
2021/01/06 05:41:55;;;;;;;34.50;21.17;;;1.50;99.90;;;2.36;94.61;97271.72;5185062;28;20596;-77
2021/01/06 05:44:27;;;;;;;36.80;21.17;;;1.60;99.90;;;2.35;94.33;97273.38;5205369;28;20304;-77
2021/01/06 05:47:00;;;;;;;34.37;21.43;;;1.60;99.90;;;2.34;94.56;97281.66;5205152;28;20208;-77
2021/01/06 05:49:33;;;;;;;36.37;21.90;;;1.50;99.90;;;2.38;92.98;97276.13;5204908;28;20703;-77
2021/01/06 05:52:12;;;;;;;30.33;20.97;;;1.60;99.90;;;2.39;93.33;97279.53;5204125;28;20223;-75
2021/01/06 05:54:49;;;;;;;35.23;21.60;;;1.60;99.90;;;2.37;93.76;97281.03;5205285;28;20201;-78
2021/01/06 05:57:40;;;;;;;29.30;19.83;;;1.60;99.90;;;2.42;92.74;97289.84;5198675;28;20195;-76
2021/01/06 06:00:45;;;;;;;32.70;20.93;;;1.60;99.90;;;2.41;93.86;97294.03;5200965;28;20333;-77
2021/01/06 06:03:51;;;;;;;33.73;21.13;;;1.60;99.90;;;2.44;92.14;97285.81;5187965;28;20244;-78
2021/01/06 06:07:05;;;;;;;38.27;22.40;;;1.60;99.90;;;2.42;93.23;97289.84;5197854;28;20282;-77
2021/01/06 06:09:54;;;;;;;33.27;21.37;;;1.60;99.90;;;2.45;92.48;97285.03;5197085;28;20205;-78
2021/01/06 06:12:44;;;;;;;32.67;21.93;;;1.60;99.90;;;2.41;93.34;97283.06;5206055;28;20237;-76
2021/01/06 06:15:37;;;;;;;38.50;22.37;;;1.60;99.90;;;2.43;92.75;97294.13;5196053;28;20202;-77
2021/01/06 06:18:28;;;;;;;31.90;20.33;;;1.60;99.90;;;2.46;92.34;97291.84;5191002;28;20208;-77
2021/01/06 06:21:18;;;;;;;32.93;22.10;;;1.60;99.90;;;2.46;92.81;97287.69;5192598;28;20729;-77
2021/01/06 06:24:13;;;;;;;31.77;20.73;;;1.60;99.90;;;2.47;93.17;97288.56;5200856;28;20206;-77
2021/01/06 06:27:00;;;;;;;32.87;21.23;;;1.60;99.90;;;2.51;92.96;97288.03;5191034;28;20670;-77
2021/01/06 06:29:39;;;;;;;35.53;22.63;;;1.60;99.90;;;2.48;92.59;97286.16;5208054;28;20196;-75
2021/01/06 06:32:11;;;;;;;34.10;21.83;;;1.60;99.90;;;2.49;92.51;97287.06;5208080;28;20221;-77
2021/01/06 06:34:44;;;;;;;29.17;21.90;;;1.60;99.90;;;2.49;93.00;97302.19;5208673;28;20201;-77
2021/01/06 06:37:20;;;;;;;33.03;21.07;;;1.60;99.90;;;2.52;92.96;97301.53;5208225;28;20208;-78
2021/01/06 06:40:10;;;;;;;29.70;21.67;;;1.60;99.90;;;2.51;92.78;97295.59;5208097;28;20205;-77
2021/01/06 06:42:54;;;;;;;33.47;19.70;;;1.60;99.90;;;2.47;92.51;97291.09;5208987;28;20680;-77
2021/01/06 06:45:57;;;;;;;31.77;20.47;;;1.60;99.90;;;2.49;92.08;97292.13;5207311;28;20200;-76
2021/01/06 06:48:40;;;;;;;31.97;21.20;;;1.60;99.90;;;2.50;92.45;97293.88;5187275;28;20281;-77
2021/01/06 06:51:18;;;;;;;30.37;19.63;;;1.60;99.90;;;2.47;92.00;97296.16;5187880;28;20604;-75
2021/01/06 06:54:00;;;;;;;29.40;19.77;;;1.60;99.90;;;2.50;92.04;97303.94;5207199;28;20572;-77
2021/01/06 06:56:41;;;;;;;31.30;20.20;;;1.60;99.90;;;2.50;91.58;97300.56;5200226;28;20217;-75
2021/01/06 06:59:20;;;;;;;32.50;20.80;;;1.60;99.90;;;2.43;92.52;97306.72;5186815;28;20202;-75
2021/01/06 07:01:59;;;;;;;31.03;20.53;;;1.50;99.90;;;2.40;92.36;97311.53;5186013;28;20216;-77
2021/01/06 07:04:38;;;;;;;32.17;20.70;;;1.50;99.90;;;2.38;91.62;97313.06;5186170;28;20194;-77
2021/01/06 07:07:35;;;;;;;32.97;20.27;;;1.40;99.90;;;2.36;92.35;97304.50;5199145;28;20197;-77
2021/01/06 07:10:20;;;;;;;31.97;21.43;;;1.50;99.90;;;2.38;92.24;97323.16;5206766;28;20213;-77
2021/01/06 07:12:56;;;;;;;30.13;20.23;;;1.50;99.90;;;2.36;91.96;97317.09;5206587;28;20261;-76
2021/01/06 07:15:33;;;;;;;31.97;20.47;;;1.50;99.90;;;2.34;92.23;97321.13;5207444;28;20718;-75
2021/01/06 07:18:28;;;;;;;30.13;20.70;;;1.40;99.90;;;2.32;92.59;97317.59;5201042;28;20194;-76
2021/01/06 07:21:17;;;;;;;28.67;20.23;;;1.40;99.90;;;2.30;92.57;97325.06;5185068;28;20209;-76
2021/01/06 07:23:56;;;;;;;28.17;20.60;;;1.40;99.90;;;2.31;93.05;97321.78;5196522;28;20201;-76
2021/01/06 07:26:38;;;;;;;34.60;22.53;;;1.50;99.90;;;2.37;92.86;97339.91;5190987;28;20195;-75
2021/01/06 07:29:13;;;;;;;30.93;21.47;;;1.50;99.90;;;2.32;92.92;97332.72;5185972;28;20209;-76
2021/01/06 07:31:56;;;;;;;30.33;21.57;;;1.50;99.90;;;2.35;93.31;97336.41;5187009;28;20233;-76
2021/01/06 07:34:39;;;;;;;27.60;20.90;;;1.50;99.90;;;2.34;93.42;97331.22;5186697;28;20680;-75
2021/01/06 07:37:30;;;;;;;28.53;20.27;;;1.50;99.90;;;2.35;93.55;97331.38;5199450;28;20205;-76
2021/01/06 07:40:24;;;;;;;30.70;21.17;;;1.60;99.90;;;2.38;93.32;97338.28;5201495;28;20202;-75
2021/01/06 07:43:21;;;;;;;28.70;19.90;;;1.50;99.90;;;2.36;93.00;97330.59;5204707;28;20225;-75
2021/01/06 07:46:25;;;;;;;30.77;21.13;;;1.50;99.90;;;2.38;92.81;97338.28;5203392;28;20194;-76
2021/01/06 07:49:11;;;;;;;30.10;19.93;;;1.50;99.90;;;2.37;93.32;97336.50;5103032;29;20203;-76
2021/01/06 07:51:57;;;;;;;30.47;20.57;;;1.50;99.90;;;2.40;92.34;97336.75;5176290;28;20311;-75
2021/01/06 07:54:36;;;;;;;30.00;21.00;;;1.50;99.90;;;2.37;93.17;97344.06;5183229;28;20950;-76
2021/01/06 07:57:17;;;;;;;32.87;20.67;;;1.40;99.90;;;2.36;93.12;97352.41;5189845;28;20205;-76
2021/01/06 07:59:55;;;;;;;29.33;21.07;;;1.40;99.90;;;2.32;92.78;97347.88;5195764;28;20661;-76
2021/01/06 08:02:35;;;;;;;32.13;21.80;;;1.40;99.90;;;2.27;93.45;97345.00;5202939;28;20221;-76
2021/01/06 08:05:35;;;;;;;29.87;22.10;;;1.40;99.90;;;2.29;93.59;97347.63;5204349;28;20291;-76
2021/01/06 08:08:14;;;;;;;36.57;23.80;;;1.40;99.90;;;2.30;93.41;97340.19;5155271;28;20205;-76
2021/01/06 08:10:49;;;;;;;30.83;22.50;;;1.50;99.90;;;2.24;92.86;97350.66;5203725;28;20216;-76
2021/01/06 08:13:27;;;;;;;31.97;21.87;;;1.40;99.90;;;2.29;93.79;97351.06;5203549;28;20594;-76
2021/01/06 08:16:16;;;;;;;27.70;20.10;;;1.40;99.90;;;2.29;93.19;97347.63;5203148;28;20205;-76
2021/01/06 08:19:04;;;;;;;34.87;23.37;;;1.40;99.90;;;2.31;94.01;97341.06;5188262;28;20406;-77
2021/01/06 08:21:45;;;;;;;31.30;22.50;;;1.50;99.90;;;2.32;93.31;97336.16;5190451;28;20232;-76
2021/01/06 08:24:28;;;;;;;32.60;23.80;;;1.50;99.90;;;2.38;93.79;97340.81;5204068;28;20262;-76
2021/01/06 08:27:02;;;;;;;33.30;25.23;;;1.50;99.90;;;2.48;93.24;97355.91;5202841;28;20208;-76
2021/01/06 08:29:36;;;;;;;38.23;24.90;;;1.50;99.90;;;2.50;93.18;97348.47;5202990;28;20224;-76
2021/01/06 08:32:23;;;;;;;33.77;23.97;;;1.50;99.90;;;2.59;92.82;97355.13;5203448;28;20235;-76
2021/01/06 08:34:58;;;;;;;33.53;24.83;;;1.50;99.90;;;2.64;92.21;97356.38;5199985;28;20711;-75
2021/01/06 08:37:34;;;;;;;36.43;24.80;;;1.50;99.90;;;2.62;92.83;97355.34;5182109;28;20818;-76
2021/01/06 08:40:26;;;;;;;31.37;24.40;;;1.60;99.90;;;2.69;91.65;97357.63;5195622;28;20307;-75
2021/01/06 08:43:01;;;;;;;33.13;23.20;;;1.60;99.90;;;2.70;91.85;97354.31;5186350;28;20331;-75
2021/01/06 08:45:35;;;;;;;35.33;24.93;;;1.60;99.90;;;2.71;92.22;97347.63;5182281;28;20283;-76
2021/01/06 08:48:27;;;;;;;33.67;24.10;;;1.60;99.90;;;2.65;92.53;97358.13;5182696;28;20687;-74
2021/01/06 08:51:08;;;;;;;36.87;25.03;;;1.60;99.90;;;2.71;91.91;97361.13;5188352;28;20695;-77
2021/01/06 08:53:44;;;;;;;33.87;24.00;;;1.60;99.90;;;2.68;92.11;97358.34;5189740;28;20293;-77
2021/01/06 08:56:23;;;;;;;33.60;24.60;;;1.70;99.90;;;2.64;92.27;97358.88;5196842;28;20201;-79
2021/01/06 08:58:58;;;;;;;34.17;24.57;;;1.60;99.90;;;2.61;92.71;97363.69;5199291;28;20191;-76
2021/01/06 09:01:39;;;;;;;32.60;23.57;;;1.60;99.90;;;2.59;92.49;97369.38;5183411;28;20788;-78
2021/01/06 09:04:18;;;;;;;39.57;25.73;;;1.60;99.90;;;2.58;93.16;97368.50;5184154;28;20199;-77
2021/01/06 09:06:54;;;;;;;32.70;24.57;;;1.70;99.90;;;2.58;93.25;97360.06;5185411;28;20235;-77
2021/01/06 09:09:43;;;;;;;35.23;23.50;;;1.60;99.90;;;2.54;93.50;97370.63;5182286;28;20208;-77
2021/01/06 09:12:51;;;;;;;32.77;23.97;;;1.70;99.90;;;2.55;92.94;97368.25;5184093;28;20215;-77
2021/01/06 09:15:35;;;;;;;35.20;23.40;;;1.60;99.90;;;2.53;93.25;97374.81;5182500;28;20249;-75
2021/01/06 09:18:14;;;;;;;33.63;23.87;;;1.60;99.90;;;2.52;92.97;97370.53;5198172;28;20288;-76
2021/01/06 09:21:09;;;;;;;35.07;24.47;;;1.60;99.90;;;2.55;92.68;97377.44;5195999;28;20198;-78
2021/01/06 09:23:47;;;;;;;34.73;24.77;;;1.60;99.90;;;2.57;92.93;97370.88;5184327;28;20293;-77
2021/01/06 09:26:24;;;;;;;36.27;25.00;;;1.70;99.90;;;2.62;92.92;97378.06;5183514;28;20285;-78
2021/01/06 09:29:03;;;;;;;34.57;25.30;;;1.60;99.90;;;2.61;91.84;97383.88;5197573;28;20211;-78
2021/01/06 09:31:40;;;;;;;29.83;23.60;;;1.60;99.90;;;2.61;92.68;97377.94;5195475;28;20232;-76
2021/01/06 09:34:15;;;;;;;37.00;23.57;;;1.60;99.90;;;2.55;92.89;97383.38;5183671;28;20213;-77
2021/01/06 09:36:49;;;;;;;32.03;24.10;;;1.60;99.90;;;2.49;92.83;97387.94;5197378;28;20300;-76
2021/01/06 09:39:28;;;;;;;30.50;23.97;;;1.60;99.90;;;2.57;92.81;97391.06;5196042;28;20219;-77
2021/01/06 09:42:02;;;;;;;29.57;22.60;;;1.60;99.90;;;2.54;92.66;97390.81;5184667;28;20220;-79
2021/01/06 09:44:35;;;;;;;29.13;23.10;;;1.60;99.90;;;2.50;92.91;97391.34;5200765;28;20200;-77
2021/01/06 09:47:17;;;;;;;32.93;23.63;;;1.60;99.90;;;2.46;92.58;97392.72;5206063;28;20205;-77
2021/01/06 09:49:55;;;;;;;32.57;23.53;;;1.50;99.90;;;2.41;93.12;97396.53;5198112;28;20201;-79
2021/01/06 09:52:32;;;;;;;33.63;24.90;;;1.50;99.90;;;2.36;93.16;97390.22;5190837;28;20229;-77
2021/01/06 09:55:10;;;;;;;32.50;23.97;;;1.50;99.90;;;2.36;93.51;97385.19;5202670;28;20228;-78
2021/01/06 09:57:43;;;;;;;32.70;24.17;;;1.50;99.90;;;2.35;93.31;97391.88;5192360;28;20718;-78
2021/01/06 10:00:41;;;;;;;38.07;27.00;;;1.50;99.90;;;2.27;93.08;97389.50;5185596;28;20209;-78
2021/01/06 10:03:14;;;;;;;33.37;26.23;;;1.40;99.90;;;2.25;93.67;97395.28;5184911;28;20211;-77
2021/01/06 10:06:09;;;;;;;39.97;30.50;;;1.50;99.90;;;2.20;93.63;97389.00;5189809;28;20203;-77
2021/01/06 10:08:49;;;;;;;32.70;25.13;;;1.40;99.90;;;2.18;93.20;97393.03;5203799;28;20288;-78
2021/01/06 10:11:42;;;;;;;32.87;26.20;;;1.40;99.90;;;2.13;93.83;97396.81;5205373;28;20208;-78
2021/01/06 10:14:35;;;;;;;34.10;24.93;;;1.40;99.90;;;2.14;93.65;97382.56;5203393;28;20194;-77
2021/01/06 10:17:14;;;;;;;33.40;27.53;;;1.40;99.90;;;2.11;94.04;97383.19;5204610;28;20292;-77
2021/01/06 10:19:55;;;;;;;34.83;25.17;;;1.40;99.90;;;2.11;94.40;97390.75;5205240;28;20199;-78
2021/01/06 10:22:39;;;;;;;32.17;24.17;;;1.30;99.90;;;2.14;93.91;97387.59;5193191;28;20281;-77
2021/01/06 10:25:26;;;;;;;34.27;25.77;;;1.30;99.90;;;2.18;93.81;97388.00;5185018;28;20197;-77
2021/01/06 10:28:06;;;;;;;31.13;24.57;;;1.30;99.90;;;2.24;93.29;97380.91;5184768;28;20574;-77
2021/01/06 10:30:38;;;;;;;27.77;22.80;;;1.30;99.90;;;2.19;94.08;97378.78;5198727;28;20202;-77
2021/01/06 10:33:17;;;;;;;29.90;24.27;;;1.30;99.90;;;2.22;93.60;97379.03;5205586;28;20220;-76
2021/01/06 10:36:14;;;;;;;32.70;25.10;;;1.30;99.90;;;2.21;94.43;97377.28;5204437;28;20197;-78
2021/01/06 10:38:52;;;;;;;34.10;24.60;;;1.30;99.90;;;2.15;94.57;97380.19;5203926;28;20217;-77
2021/01/06 10:41:30;;;;;;;33.97;24.30;;;1.30;99.90;;;2.16;94.79;97381.94;5205003;28;20229;-77
2021/01/06 10:44:29;;;;;;;31.30;23.40;;;1.40;99.90;;;2.16;95.04;97376.00;5205745;28;20197;-77
2021/01/06 10:47:39;;;;;;;30.33;23.10;;;1.30;99.90;;;2.14;94.65;97378.41;5184369;28;20297;-76
2021/01/06 10:50:45;;;;;;;30.07;23.10;;;1.40;99.90;;;2.15;94.17;97375.13;5185382;28;20279;-78
2021/01/06 10:53:29;;;;;;;30.20;24.53;;;1.40;99.90;;;2.12;94.89;97371.47;5204676;28;20229;-77
2021/01/06 10:56:08;;;;;;;28.87;22.57;;;1.40;99.90;;;2.08;95.01;97372.00;5202085;28;20575;-76
2021/01/06 10:58:52;;;;;;;28.20;22.27;;;1.30;99.90;;;2.05;94.90;97371.75;5202761;28;20223;-77
2021/01/06 11:02:03;;;;;;;28.77;22.40;;;1.30;99.90;;;2.05;94.97;97370.09;5202028;28;20307;-76
2021/01/06 11:05:04;;;;;;;27.93;22.70;;;1.30;99.90;;;2.09;94.88;97374.66;5198929;28;20191;-77
2021/01/06 11:08:27;;;;;;;29.27;22.33;;;1.30;99.90;;;2.08;94.20;97372.88;5190093;28;20551;-77
2021/01/06 11:11:27;;;;;;;29.73;23.17;;;1.30;99.90;;;2.02;95.06;97373.25;5205216;28;20551;-77
2021/01/06 11:14:44;;;;;;;28.97;23.67;;;1.30;99.90;;;2.03;95.15;97371.59;5187345;28;20586;-76
2021/01/06 11:17:31;;;;;;;30.73;25.33;;;1.30;99.90;;;2.00;95.36;97373.88;5187001;28;20204;-76